Time,TemperatureF,DewpointF,PressureIn,WindDirection,WindDirectionDegrees,WindSpeedMPH,WindSpeedGustMPH,Humidity,HourlyPrecipIn,Conditions,Clouds,dailyrainin,SoftwareType,DateUTC
2013-02-04 00:04:00,14.0,11.0,30.09,SW,234,0.0,0.0,88,0.00,,,0.00,weatherlink.com 1.10,2013-02-04 06:04:00,
2013-02-04 00:19:00,14.1,11.0,30.08,SW,234,0.0,0.0,88,0.00,,,0.00,weatherlink.com 1.10,2013-02-04 06:19:00,
2013-02-04 00:34:00,14.1,11.0,30.07,SW,234,0.0,0.0,88,0.00,,,0.00,weatherlink.com 1.10,2013-02-04 06:34:00,
2013-02-04 00:49:00,13.9,11.0,30.07,SW,234,0.0,0.0,89,0.00,,,0.00,weatherlink.com 1.10,2013-02-04 06:49:00,
2013-02-04 01:05:00,14.0,11.0,30.06,SW,234,0.0,0.0,89,0.00,,,0.00,weatherlink.com 1.10,2013-02-04 07:05:00,
2013-02-04 01:20:00,13.8,11.0,30.05,SW,234,0.0,0.0,89,0.00,,,0.00,weatherlink.com 1.10,2013-02-04 07:20:00,
2013-02-04 01:35:00,13.8,11.0,30.06,SW,234,0.0,0.0,90,0.00,,,0.00,weatherlink.com 1.10,2013-02-04 07:35:00,
2013-02-04 01:50:00,13.6,11.0,30.05,SW,234,0.0,0.0,90,0.00,,,0.00,weatherlink.com 1.10,2013-02-04 07:50:00,
2013-02-04 02:05:00,13.6,11.0,30.04,SW,234,0.0,0.0,90,0.00,,,0.00,weatherlink.com 1.10,2013-02-04 08:05:00,
2013-02-04 02:20:00,13.5,11.0,30.04,SW,234,0.0,2.0,90,0.00,,,0.00,weatherlink.com 1.10,2013-02-04 08:20:00,
2013-02-04 02:35:00,13.4,11.0,30.03,NNE,19,2.0,4.0,90,0.00,,,0.00,weatherlink.com 1.10,2013-02-04 08:35:00,
2013-02-04 02:50:00,13.1,11.0,30.03,North,355,0.0,3.0,89,0.00,,,0.00,weatherlink.com 1.10,2013-02-04 08:50:00,
2013-02-04 03:05:00,13.0,10.0,30.02,North,355,0.0,3.0,88,0.00,,,0.00,weatherlink.com 1.10,2013-02-04 09:05:00,
2013-02-04 03:20:00,13.0,10.0,30.01,North,355,0.0,2.0,88,0.00,,,0.00,weatherlink.com 1.10,2013-02-04 09:20:00,
2013-02-04 03:35:00,13.0,10.0,30.00,North,355,0.0,2.0,89,0.00,,,0.00,weatherlink.com 1.10,2013-02-04 09:35:00,
2013-02-04 03:50:00,12.9,10.0,30.00,NNE,24,1.0,3.0,89,0.00,,,0.00,weatherlink.com 1.10,2013-02-04 09:50:00,
2013-02-04 04:05:00,12.9,10.0,30.00,NNE,24,0.0,1.0,89,0.00,,,0.00,weatherlink.com 1.10,2013-02-04 10:05:00,
2013-02-04 04:20:00,12.8,10.0,30.01,NNE,24,0.0,1.0,89,0.00,,,0.00,weatherlink.com 1.10,2013-02-04 10:20:00,
2013-02-04 04:35:00,12.9,10.0,30.01,NNE,24,0.0,1.0,89,0.00,,,0.00,weatherlink.com 1.10,2013-02-04 10:35:00,
2013-02-04 04:50:00,12.9,11.0,30.01,NNE,24,0.0,1.0,90,0.00,,,0.00,weatherlink.com 1.10,2013-02-04 10:50:00,
2013-02-04 05:05:00,12.9,11.0,30.01,NNE,24,0.0,2.0,90,0.00,,,0.00,weatherlink.com 1.10,2013-02-04 11:05:00,
2013-02-04 05:20:00,13.0,11.0,30.02,NNE,24,0.0,1.0,90,0.00,,,0.00,weatherlink.com 1.10,2013-02-04 11:20:00,
2013-02-04 05:35:00,12.9,10.0,30.01,NNE,23,1.0,3.0,89,0.00,,,0.00,weatherlink.com 1.10,2013-02-04 11:35:00,
2013-02-04 05:50:00,12.6,10.0,30.01,North,355,2.0,3.0,89,0.00,,,0.00,weatherlink.com 1.10,2013-02-04 11:50:00,
2013-02-04 06:05:00,12.3,9.0,30.01,North,355,3.0,3.0,88,0.00,,,0.00,weatherlink.com 1.10,2013-02-04 12:05:00,
2013-02-04 06:20:00,12.2,9.0,30.01,North,351,4.0,4.0,88,0.00,,,0.00,weatherlink.com 1.10,2013-02-04 12:20:00,
2013-02-04 06:35:00,11.9,9.0,30.02,North,5,4.0,6.0,89,0.00,,,0.00,weatherlink.com 1.10,2013-02-04 12:35:00,
2013-02-04 06:50:00,11.6,9.0,30.01,North,5,4.0,6.0,88,0.00,,,0.00,weatherlink.com 1.10,2013-02-04 12:50:00,
2013-02-04 07:05:00,11.5,9.0,30.01,North,355,3.0,7.0,89,0.00,,,0.00,weatherlink.com 1.10,2013-02-04 13:05:00,
2013-02-04 07:20:00,11.5,9.0,30.01,North,350,3.0,5.0,88,0.00,,,0.00,weatherlink.com 1.10,2013-02-04 13:20:00,
2013-02-04 07:35:00,11.6,9.0,30.01,NNW,347,3.0,7.0,88,0.00,,,0.00,weatherlink.com 1.10,2013-02-04 13:35:00,
2013-02-04 07:50:00,11.8,9.0,30.00,North,5,1.0,6.0,88,0.00,,,0.00,weatherlink.com 1.10,2013-02-04 13:50:00,
2013-02-04 08:05:00,12.1,9.0,30.00,North,360,2.0,6.0,88,0.00,,,0.00,weatherlink.com 1.10,2013-02-04 14:05:00,
2013-02-04 08:20:00,12.2,9.0,30.00,North,5,3.0,7.0,88,0.00,,,0.00,weatherlink.com 1.10,2013-02-04 14:20:00,
2013-02-04 08:35:00,12.2,9.0,30.01,NNE,28,5.0,8.0,87,0.00,,,0.00,weatherlink.com 1.10,2013-02-04 14:35:00,
2013-02-04 08:50:00,12.4,9.0,30.01,NNE,33,4.0,10.0,86,0.00,,,0.00,weatherlink.com 1.10,2013-02-04 14:50:00,
2013-02-04 09:05:00,12.8,9.0,30.00,North,355,2.0,6.0,86,0.00,,,0.00,weatherlink.com 1.10,2013-02-04 15:05:00,
2013-02-04 09:20:00,13.2,10.0,30.01,NE,44,5.0,9.0,86,0.00,,,0.00,weatherlink.com 1.10,2013-02-04 15:20:00,
2013-02-04 09:35:00,13.5,10.0,30.00,North,355,5.0,7.0,86,0.00,,,0.00,weatherlink.com 1.10,2013-02-04 15:35:00,
2013-02-04 09:50:00,13.4,10.0,30.00,North,351,6.0,8.0,85,0.00,,,0.00,weatherlink.com 1.10,2013-02-04 15:50:00,
2013-02-04 10:05:00,13.5,10.0,30.00,NW,325,2.0,7.0,85,0.00,,,0.00,weatherlink.com 1.10,2013-02-04 16:05:00,
2013-02-04 10:20:00,13.4,10.0,30.01,North,355,6.0,9.0,85,0.00,,,0.00,weatherlink.com 1.10,2013-02-04 16:20:00,
2013-02-04 10:35:00,13.5,10.0,30.01,North,5,5.0,7.0,84,0.00,,,0.00,weatherlink.com 1.10,2013-02-04 16:35:00,
2013-02-04 10:50:00,13.7,10.0,30.01,North,5,3.0,6.0,83,0.00,,,0.00,weatherlink.com 1.10,2013-02-04 16:50:00,
2013-02-04 11:05:00,14.1,10.0,30.01,North,5,9.0,10.0,83,0.00,,,0.00,weatherlink.com 1.10,2013-02-04 17:05:00,
2013-02-04 11:20:00,14.5,10.0,30.01,North,5,5.0,8.0,82,0.00,,,0.00,weatherlink.com 1.10,2013-02-04 17:20:00,
2013-02-04 11:36:00,15.1,11.0,30.01,North,10,3.0,8.0,82,0.00,,,0.00,weatherlink.com 1.10,2013-02-04 17:36:00,
2013-02-04 11:51:00,14.8,10.0,30.01,North,355,6.0,11.0,80,0.00,,,0.00,weatherlink.com 1.10,2013-02-04 17:51:00,
2013-02-04 12:06:00,15.0,10.0,30.01,NNW,342,7.0,9.0,80,0.00,,,0.00,weatherlink.com 1.10,2013-02-04 18:06:00,
2013-02-04 12:21:00,15.2,10.0,30.00,NNW,342,8.0,9.0,80,0.00,,,0.00,weatherlink.com 1.10,2013-02-04 18:21:00,
2013-02-04 12:36:00,15.5,10.0,30.00,NNW,339,5.0,9.0,80,0.00,,,0.00,weatherlink.com 1.10,2013-02-04 18:36:00,
2013-02-04 12:51:00,16.1,12.0,30.00,North,5,5.0,7.0,82,0.00,,,0.00,weatherlink.com 1.10,2013-02-04 18:51:00,
2013-02-04 13:06:00,16.3,11.0,30.00,NNW,331,6.0,9.0,81,0.00,,,0.00,weatherlink.com 1.10,2013-02-04 19:06:00,
2013-02-04 13:21:00,17.1,13.0,30.00,NNW,331,3.0,6.0,82,0.00,,,0.00,weatherlink.com 1.10,2013-02-04 19:21:00,
2013-02-04 13:36:00,16.6,11.0,30.01,NNW,334,6.0,9.0,79,0.00,,,0.00,weatherlink.com 1.10,2013-02-04 19:36:00,
2013-02-04 13:51:00,16.8,12.0,30.01,NNW,330,4.0,7.0,81,0.00,,,0.00,weatherlink.com 1.10,2013-02-04 19:51:00,
2013-02-04 14:06:00,16.6,11.0,30.01,North,360,0.0,8.0,78,0.00,,,0.00,weatherlink.com 1.10,2013-02-04 20:06:00,
2013-02-04 14:21:00,16.3,10.0,30.00,North,360,3.0,7.0,77,0.00,,,0.00,weatherlink.com 1.10,2013-02-04 20:21:00,
2013-02-04 14:36:00,16.5,11.0,29.98,NNW,347,3.0,7.0,77,0.00,,,0.00,weatherlink.com 1.10,2013-02-04 20:36:00,
2013-02-04 14:51:00,16.2,10.0,29.99,North,11,5.0,8.0,75,0.00,,,0.00,weatherlink.com 1.10,2013-02-04 20:51:00,
2013-02-04 15:06:00,16.4,10.0,29.99,North,5,5.0,6.0,75,0.00,,,0.00,weatherlink.com 1.10,2013-02-04 21:06:00,
2013-02-04 15:21:00,16.1,9.0,29.99,NNE,12,4.0,10.0,72,0.00,,,0.00,weatherlink.com 1.10,2013-02-04 21:21:00,
2013-02-04 15:36:00,16.4,9.0,29.99,NW,317,2.0,7.0,73,0.00,,,0.00,weatherlink.com 1.10,2013-02-04 21:36:00,
2013-02-04 15:51:00,16.6,9.0,29.99,NNW,329,1.0,4.0,73,0.00,,,0.00,weatherlink.com 1.10,2013-02-04 21:51:00,
2013-02-04 16:06:00,16.6,8.0,29.99,NNW,330,0.0,4.0,70,0.00,,,0.00,weatherlink.com 1.10,2013-02-04 22:06:00,
2013-02-04 16:21:00,16.0,7.0,29.99,North,5,2.0,4.0,69,0.00,,,0.00,weatherlink.com 1.10,2013-02-04 22:21:00,
2013-02-04 16:36:00,14.2,5.0,30.00,NNW,334,2.0,4.0,67,0.00,,,0.00,weatherlink.com 1.10,2013-02-04 22:36:00,
2013-02-04 16:51:00,13.1,4.0,30.01,NNW,329,2.0,5.0,67,0.00,,,0.00,weatherlink.com 1.10,2013-02-04 22:51:00,
2013-02-04 17:06:00,12.3,4.0,30.01,NNW,337,2.0,5.0,68,0.00,,,0.00,weatherlink.com 1.10,2013-02-04 23:06:00,
2013-02-04 17:21:00,11.4,2.0,30.01,NNW,333,1.0,3.0,66,0.00,,,0.00,weatherlink.com 1.10,2013-02-04 23:21:00,
2013-02-04 17:36:00,10.8,2.0,30.01,NNW,333,0.0,2.0,67,0.00,,,0.00,weatherlink.com 1.10,2013-02-04 23:36:00,
2013-02-04 17:51:00,10.1,2.0,30.02,NNW,333,0.0,2.0,70,0.00,,,0.00,weatherlink.com 1.10,2013-02-04 23:51:00,
2013-02-04 18:06:00,9.4,2.0,30.02,NNW,330,1.0,2.0,71,0.00,,,0.00,weatherlink.com 1.10,2013-02-05 00:06:00,
2013-02-04 18:21:00,9.0,2.0,30.02,NNW,330,0.0,2.0,72,0.00,,,0.00,weatherlink.com 1.10,2013-02-05 00:21:00,
2013-02-04 18:36:00,8.6,2.0,30.02,NNW,330,0.0,1.0,73,0.00,,,0.00,weatherlink.com 1.10,2013-02-05 00:36:00,
2013-02-04 18:51:00,8.0,1.0,30.02,NNW,330,1.0,2.0,74,0.00,,,0.00,weatherlink.com 1.10,2013-02-05 00:51:00,
2013-02-04 19:06:00,7.2,1.0,30.02,NNW,330,0.0,0.0,76,0.00,,,0.00,weatherlink.com 1.10,2013-02-05 01:06:00,
2013-02-04 19:21:00,6.7,2.0,30.03,NNW,330,0.0,1.0,79,0.00,,,0.00,weatherlink.com 1.10,2013-02-05 01:21:00,
2013-02-04 19:36:00,6.0,1.0,30.04,NNW,330,0.0,0.0,79,0.00,,,0.00,weatherlink.com 1.10,2013-02-05 01:36:00,
2013-02-04 19:51:00,6.0,1.0,30.04,NNW,330,0.0,0.0,81,0.00,,,0.00,weatherlink.com 1.10,2013-02-05 01:51:00,
2013-02-04 20:06:00,5.7,1.0,30.05,NNW,330,0.0,1.0,81,0.00,,,0.00,weatherlink.com 1.10,2013-02-05 02:06:00,
2013-02-04 20:21:00,6.2,2.0,30.05,NNW,330,0.0,1.0,81,0.00,,,0.00,weatherlink.com 1.10,2013-02-05 02:21:00,
2013-02-04 20:36:00,6.6,2.0,30.05,NNW,330,0.0,1.0,82,0.00,,,0.00,weatherlink.com 1.10,2013-02-05 02:36:00,
2013-02-04 20:51:00,6.1,2.0,30.04,NNW,330,0.0,0.0,81,0.00,,,0.00,weatherlink.com 1.10,2013-02-05 02:51:00,
2013-02-04 21:06:00,6.3,2.0,30.04,NNW,330,0.0,0.0,82,0.00,,,0.00,weatherlink.com 1.10,2013-02-05 03:06:00,
2013-02-04 21:21:00,6.5,2.0,30.03,NNW,330,0.0,0.0,82,0.00,,,0.00,weatherlink.com 1.10,2013-02-05 03:21:00,
2013-02-04 21:36:00,6.3,2.0,30.02,NNW,330,0.0,0.0,82,0.00,,,0.00,weatherlink.com 1.10,2013-02-05 03:36:00,
2013-02-04 21:51:00,5.9,2.0,30.02,NNW,330,0.0,0.0,82,0.00,,,0.00,weatherlink.com 1.10,2013-02-05 03:51:00,
2013-02-04 22:06:00,5.5,1.0,30.02,NNW,330,0.0,1.0,83,0.00,,,0.00,weatherlink.com 1.10,2013-02-05 04:06:00,
2013-02-04 22:21:00,5.3,1.0,30.02,NNW,330,0.0,0.0,83,0.00,,,0.00,weatherlink.com 1.10,2013-02-05 04:21:00,
2013-02-04 22:36:00,4.8,1.0,30.02,NNW,330,0.0,0.0,84,0.00,,,0.00,weatherlink.com 1.10,2013-02-05 04:36:00,
2013-02-04 22:51:00,4.7,1.0,30.02,NNW,330,0.0,0.0,85,0.00,,,0.00,weatherlink.com 1.10,2013-02-05 04:51:00,
2013-02-04 23:06:00,4.8,2.0,30.01,NNW,330,0.0,0.0,86,0.00,,,0.00,weatherlink.com 1.10,2013-02-05 05:06:00,
2013-02-04 23:21:00,4.9,1.0,30.01,NNW,330,0.0,0.0,85,0.00,,,0.00,weatherlink.com 1.10,2013-02-05 05:21:00,
2013-02-04 23:36:00,5.0,2.0,30.02,NNW,330,0.0,0.0,85,0.00,,,0.00,weatherlink.com 1.10,2013-02-05 05:36:00,
2013-02-04 23:51:00,5.1,2.0,30.01,NNW,330,0.0,0.0,86,0.00,,,0.00,weatherlink.com 1.10,2013-02-05 05:51:00,